Weather History for KOSC - February, 2014

Change the Weather History Date:

Saturday, February 8, 2014

  Actual Average Record
Temperature  
Mean Temperature 10 °F -  
Max Temperature 22 °F 29 °F 41 °F (2002)
Min Temperature -3 °F 14 °F -7 °F (2004)
Degree Days  
Heating Degree Days 56    
Moisture  
Dew Point 3 °F    
Average Humidity 75    
Maximum Humidity 86    
Minimum Humidity 51    
Precipitation  
Precipitation 0.00 in - - ()
Sea Level Pressure  
Sea Level Pressure 30.16 in    
Wind  
Wind Speed 8 mph (SW)    
Max Wind Speed 15 mph    
Max Gust Speed 20 mph    
Visibility 10 miles    
Events      
Averages and records for this station are not official NWS values.
T = Trace of Precipitation, MM = Missing Value Source: NWS Daily Summary

Daily Weather History Graph

Daily Weather History Graph

Search for Another Location

Airport or City:

Trip Planner

Search our weather history database for the weather conditions in past years. The results will help you decide how hot, cold, wet, or windy it might be!

Date:

Astronomy

Feb. 08, 2014 Rise Set
Actual Time 7:43 AM EST 5:52 PM EST
Civil Twilight 7:12 AM EST 6:23 PM EST
Nautical Twilight 6:38 AM EST 6:57 PM EST
Astronomical Twilight 6:04 AM EST 7:31 PM EST
Moon 12:42 PM EST (2/8) 2:58 AM EST (2/8)
Length of Visible Light 11h 10m
Length of Day
10h 09m
Waxing Gibbous, 68% of the Moon is Illuminated
Feb 8
Waxing Gibbous
Feb 14
Full
Feb 22
Last Quarter
Mar 1
New
Mar 8
First Quarter

Hourly Weather History & Observations

Time (EST) Temp. Windchill Dew Point Humidity Pressure Visibility Wind Dir Wind Speed Gust Speed Precip Events Conditions
12:13 AM 7.7 °F -5.8 °F 2.5 °F 79% 30.15 in 10.0 mi SW 9.2 mph - N/A   Clear
12:33 AM 6.8 °F -6.9 °F 1.9 °F 80% 30.16 in 10.0 mi SW 9.2 mph - N/A   Clear
12:54 AM 6.8 °F -6.9 °F 2.1 °F 81% 30.16 in 10.0 mi SW 9.2 mph - N/A   Clear
1:13 AM 6.4 °F -7.3 °F 2.1 °F 82% 30.16 in 10.0 mi SW 9.2 mph - N/A   Clear
1:33 AM 6.4 °F -9.0 °F 2.1 °F 82% 30.16 in 10.0 mi SW 11.5 mph - N/A   Clear
1:54 AM 6.8 °F -8.6 °F 2.3 °F 82% 30.16 in 10.0 mi SW 11.5 mph - N/A   Clear
2:13 AM 6.1 °F -8.7 °F 1.8 °F 82% 30.17 in 10.0 mi SW 10.4 mph - N/A   Clear
2:33 AM 5.5 °F -8.4 °F 1.4 °F 83% 30.17 in 10.0 mi SW 9.2 mph - N/A   Clear
2:54 AM 4.1 °F -10.2 °F 0.5 °F 85% 30.18 in 10.0 mi SW 9.2 mph - N/A   Clear
3:13 AM 3.9 °F -10.4 °F 0.3 °F 85% 30.18 in 10.0 mi SW 9.2 mph - N/A   Clear
3:33 AM 3.7 °F -9.6 °F 0.3 °F 86% 30.18 in 10.0 mi SW 8.1 mph - N/A   Clear
3:54 AM 3.4 °F -11.1 °F 0.1 °F 86% 30.18 in 10.0 mi SW 9.2 mph - N/A   Clear
4:13 AM 3.2 °F -12.2 °F -0.2 °F 86% 30.18 in 10.0 mi SSW 10.4 mph - N/A   Clear
4:33 AM 3.2 °F -11.3 °F -0.4 °F 85% 30.18 in 10.0 mi SW 9.2 mph - N/A   Clear
4:54 AM 2.5 °F -12.2 °F -1.1 °F 85% 30.18 in 10.0 mi SW 9.2 mph - N/A   Clear
5:13 AM 0.1 °F -14.0 °F -3.8 °F 83% 30.19 in 10.0 mi SW 8.1 mph - N/A   Clear
5:33 AM 1.4 °F -12.5 °F -2.0 °F 86% 30.20 in 10.0 mi SW 8.1 mph - N/A   Clear
5:53 AM -0.2 °F -14.4 °F -3.8 °F 85% 30.20 in 10.0 mi SW 8.1 mph - N/A   Clear
6:13 AM 0.3 °F -13.8 °F -2.9 °F 86% 30.20 in 10.0 mi SW 8.1 mph - N/A   Clear
6:34 AM -3.1 °F -17.9 °F -7.4 °F 82% 30.20 in 10.0 mi SW 8.1 mph - N/A   Clear
6:53 AM -3.1 °F -17.9 °F -6.7 °F 85% 30.20 in 10.0 mi WSW 8.1 mph - N/A   Clear
7:13 AM -2.4 °F -15.8 °F -6.0 °F 85% 30.20 in 10.0 mi WSW 6.9 mph - N/A   Clear
7:34 AM -1.1 °F -12.9 °F -4.4 °F 86% 30.21 in 10.0 mi WSW 5.8 mph - N/A   Clear
7:53 AM -0.0 °F -11.6 °F -3.5 °F 85% 30.20 in 10.0 mi West 5.8 mph - N/A   Clear
8:13 AM 1.8 °F -9.5 °F -1.8 °F 85% 30.21 in 10.0 mi WSW 5.8 mph - N/A   Clear
8:34 AM -2.0 °F -13.9 °F -6.9 °F 80% 30.21 in 10.0 mi SW 5.8 mph - N/A   Clear
8:53 AM 0.5 °F -12.3 °F -3.3 °F 84% 30.21 in 10.0 mi SSW 6.9 mph - N/A   Clear
9:13 AM 3.9 °F -9.4 °F -0.6 °F 82% 30.21 in 10.0 mi SW 8.1 mph - N/A   Clear
9:34 AM 4.8 °F -7.1 °F 0.3 °F 82% 30.22 in 10.0 mi SW 6.9 mph - N/A   Clear
9:53 AM 6.6 °F -2.2 °F 1.6 °F 80% 30.22 in 10.0 mi SW 4.6 mph - N/A   Clear
10:13 AM 8.6 °F 2.0 °F 3.0 °F 78% 30.22 in 10.0 mi SW 3.5 mph - N/A   Clear
10:34 AM 11.1 °F - 4.5 °F 75% 30.21 in 10.0 mi Calm Calm - N/A   Clear
10:53 AM 12.0 °F 1.5 °F 5.0 °F 73% 30.20 in 10.0 mi SW 6.9 mph - N/A   Clear
11:13 AM 14.4 °F 6.9 °F 5.9 °F 69% 30.20 in 10.0 mi SSW 4.6 mph - N/A   Clear
11:34 AM 16.7 °F 6.2 °F 6.4 °F 64% 30.20 in 10.0 mi WSW 8.1 mph - N/A   Clear
11:53 AM 17.8 °F 12.5 °F 6.4 °F 61% 30.19 in 10.0 mi WSW 3.5 mph - N/A   Clear
12:13 PM 18.3 °F 13.1 °F 6.6 °F 60% 30.18 in 10.0 mi SSW 3.5 mph - N/A   Clear
12:34 PM 18.9 °F 9.8 °F 7.0 °F 60% 30.17 in 10.0 mi SW 6.9 mph - N/A   Clear
12:53 PM 20.1 °F 13.6 °F 6.8 °F 56% 30.16 in 10.0 mi SSW 4.6 mph - N/A   Clear
1:14 PM 20.1 °F 9.5 °F 6.6 °F 56% 30.15 in 10.0 mi SW 9.2 mph - N/A   Clear
1:34 PM 21.0 °F 13.4 °F 6.4 °F 53% 30.15 in 10.0 mi WSW 5.8 mph - N/A   Clear
1:53 PM 21.4 °F 12.8 °F 6.1 °F 52% 30.14 in 10.0 mi WSW 6.9 mph - N/A   Clear
2:14 PM 21.9 °F 11.7 °F 6.6 °F 52% 30.13 in 10.0 mi WSW 9.2 mph - N/A   Clear
2:34 PM 22.1 °F 12.8 °F 6.6 °F 51% 30.13 in 10.0 mi West 8.1 mph - N/A   Clear
2:53 PM 22.1 °F 13.7 °F 7.0 °F 52% 30.13 in 10.0 mi SW 6.9 mph - N/A   Clear
3:14 PM 22.3 °F 16.1 °F 7.2 °F 52% 30.13 in 10.0 mi WSW 4.6 mph - N/A   Clear
3:33 PM 21.7 °F 10.2 °F 7.2 °F 54% 30.13 in 10.0 mi WSW 11.5 mph - N/A   Clear
3:53 PM 22.3 °F 14.9 °F 7.2 °F 52% 30.12 in 10.0 mi WSW 5.8 mph - N/A   Clear
4:14 PM 21.9 °F 12.5 °F 6.1 °F 51% 30.12 in 10.0 mi SSW 8.1 mph - N/A   Clear
4:33 PM 20.5 °F 10.0 °F 8.1 °F 59% 30.12 in 10.0 mi South 9.2 mph - N/A   Clear
4:53 PM 19.4 °F 7.2 °F 9.1 °F 64% 30.12 in 10.0 mi South 11.5 mph - N/A   Clear
5:14 PM 18.5 °F 7.5 °F 8.6 °F 65% 30.11 in 10.0 mi SSW 9.2 mph - N/A   Clear
5:33 PM 17.8 °F 3.4 °F 7.7 °F 65% 30.12 in 10.0 mi SSW 15.0 mph 19.6 mph N/A   Clear
5:53 PM 16.7 °F 3.8 °F 7.7 °F 68% 30.12 in 10.0 mi SSW 11.5 mph - N/A   Clear
6:14 PM 16.2 °F 2.5 °F 7.7 °F 69% 30.12 in 10.0 mi SSW 12.7 mph - N/A   Clear
6:33 PM 15.4 °F 3.8 °F 7.7 °F 71% 30.13 in 10.0 mi SSW 9.2 mph - N/A   Clear
6:53 PM 14.2 °F 3.1 °F 7.2 °F 74% 30.13 in 10.0 mi SSW 8.1 mph - N/A   Clear
7:14 PM 13.8 °F 4.9 °F 7.3 °F 75% 30.13 in 10.0 mi SSW 5.8 mph - N/A   Clear
7:33 PM 13.3 °F 3.0 °F 7.0 °F 76% 30.14 in 10.0 mi SSW 6.9 mph - N/A   Clear
7:53 PM 11.8 °F 1.3 °F 6.3 °F 78% 30.14 in 10.0 mi SW 6.9 mph - N/A   Clear
8:13 PM 12.6 °F 1.1 °F 6.8 °F 78% 30.13 in 10.0 mi SW 8.1 mph - N/A   Scattered Clouds
8:33 PM 12.2 °F 0.7 °F 6.6 °F 78% 30.14 in 10.0 mi SSW 8.1 mph - N/A   Scattered Clouds
8:54 PM 11.3 °F 0.7 °F 6.3 °F 80% 30.13 in 10.0 mi SW 6.9 mph - N/A   Clear
9:13 PM 10.6 °F -0.2 °F 5.9 °F 81% 30.13 in 10.0 mi SW 6.9 mph - N/A   Clear
9:33 PM 9.7 °F -0.1 °F 5.4 °F 83% 30.12 in 10.0 mi WSW 5.8 mph - N/A   Clear
9:54 PM 10.6 °F 4.3 °F 6.8 °F 85% 30.13 in 10.0 mi WSW 3.5 mph - N/A   Clear
10:13 PM 10.9 °F 0.2 °F 6.3 °F 81% 30.14 in 10.0 mi WSW 6.9 mph - N/A   Clear
10:33 PM 9.0 °F -2.2 °F 4.8 °F 83% 30.14 in 10.0 mi WSW 6.9 mph - N/A   Scattered Clouds
10:54 PM 8.8 °F 0.4 °F 4.8 °F 84% 30.14 in 10.0 mi WSW 4.6 mph - N/A   Mostly Cloudy
11:13 PM 7.5 °F -1.1 °F 3.2 °F 82% 30.13 in 10.0 mi SW 4.6 mph - N/A   Scattered Clouds
11:33 PM 5.7 °F -3.2 °F 1.8 °F 84% 30.13 in 10.0 mi SW 4.6 mph - N/A   Clear
11:54 PM 3.7 °F -3.6 °F -0.6 °F 82% 30.13 in 10.0 mi SW 3.5 mph - N/A   Clear